Aérodrome :
LOGIN :

S'inscrire | Disclaimer

   EN    FR    IT 

 










Légende :    VFR   VFR Marginal   IFR   IFR Intensif   IFR Très Intensif
Visi : 
Plafond : 
>= 8 km
>= 3000ft
5 à 8 km
1000 à 3000 ft
1500m à 5 km
500 à 1000 ft
800 à 1500m
200 à 500 ft
< 800m
< 200 ft
Symboles :   Orages  Brouillard  Fortes neiges  Fortes précipitations  Vent > 20 kt
SIGMETs :   Divers  Orages  Givrage  Turbulence  Onde Orograph.  Cendres Volcan.






- Altitude de l'aérodrome : 1017 ft


LFSL - Brive Souillac

DERNIER METAR :
  • 181430Z AUTO 36005KT 290V060 CAVOK 07/M01 Q1027 NOSIG

METARs EXPIRÉS :
  • 181400Z AUTO 34004KT 290V040 CAVOK 07/M01 Q1027 NOSIG
  • 181330Z AUTO 35005KT 320V030 CAVOK 07/M00 Q1028 NOSIG
  • 181300Z AUTO 30005KT 250V350 9999 FEW035 07/M01 Q1028 NOSIG
  • 181230Z AUTO 31004KT 280V340 9999 SCT035 07/M02 Q1028 NOSIG
  • 181200Z AUTO VRB03KT 9999 FEW033 07/M01 Q1029 NOSIG

TAF TAF LFSL
Valide du 18 à 15h jusqu'au 19 à 00h UTC


181400Z 1815/1824 VRB02KT CAVOK
BECMG 1819/1821 3000 BR
PROB40
TEMPO 1819/1824 0400 FG VV///



MET'MAP, la Météo Aéronautique d'un coup d'oeil ! - Copyright ORBIFLY Décembre 2007 - Disclaimer

ORBIFLY MET'MAP TEAM :

Programmation & Développement : Alexandra Zaïnal
Sur une idée originale de : Baudouin d'Aumeries
Assistance à la programmation : Marc-Olivier Méhu
Soutien technique & logistique : Manuel Goepfert

Contact : metmap@orbifly.com




SOURCES & CREDITS :

   NOAA